Airfield :
LOGIN :

Register | Disclaimer

   EN    FR    IT 

 










Legend :    VFR   Marginal VFR   IFR   Intensive IFR   Very Intensive IFR
Visi :
Ceiling :
>= 8 km
>= 3000ft
5 to 8 km
1000 to 3000 ft
1500m to 5 km
500 to 1000 ft
800 to 1500m
200 to 500 ft
< 800m
< 200 ft
Symbols :   Thunderstorms  Fog  Heavy snow  Heavy precipitations  Wind > 20 kt
SIGMETs :     Misc.  Thunderstorms  Icing  Turbulence  Mountain Waves  Volcanic Ashes






- Airport Elevation : 286 ft
- IATA code : FFD


EGVA - RAF Fairford

CURRENT METAR :
  • 221356Z AUTO 07011KT 9999 CLR 14/M02 A3029 RMK AO2 SLP263 T01391021 CHINO RWY27 $

EXPIRED METARs :
  • 221256Z AUTO 09010KT 9999 CLR 14/M01 A3030 RMK AO2 SLP266 T01361012 CHINO RWY27 $
  • 221156Z AUTO 07013KT 9999 CLR 12/M00 A3030 RMK AO2 SLP266 T01171005 10120 20017 57006 CHINO RWY27 $

TAF AMD TAF EGVA
Valid from the 22 at 08:00 until the 23 at 09:00 UTC


220845Z 2208/2309 06009KT 9999 SKC QNH3028INS
BECMG 2211/2212 09010G15KT 9999 SKC QNH3031INS
BECMG 2219/2220 10009KT 9999 SKC QNH3033INS
BECMG 2304/2305 09009KT 8000 BR SCT006 QNH3037INS TX14/2216Z TN01/2302Z LAST NO AMDS AFT 2208 NEXT 2215



MET'MAP, your aeronautical weather chart ! - Copyright ORBIFLY December 2007 - Disclaimer

ORBIFLY MET'MAP TEAM :

Programming & Development : Alexandra Zaïnal
Concept & original design : Baudouin d'Aumeries
Assistance for programming : Marc-Olivier Méhu
Technical & hardware support : Manuel Goepfert

Contact : metmap@orbifly.com




SOURCES & CREDITS :

   NOAA